PrentiSS Brown — WDE6848 — position and weather

sailwx.info

Track history (hours):
 
Tides and Currents Weather Stations Pressure Air Temp Water Temp Dewpoint Dewpoint Depression Visibility Wind Speed Wind Dir Waves Ship Positions

PrentiSS Brown

Owner: Port City Marine Services Inc, Muskegon, MI. More information available from US FCC via Universal Licensing System and Coast Guard Vessel Documentation Center.

Last reported at 2014-Oct-22 14:33 UTC. Time now 2014-Oct-22 15:32 UTC.
Position N 45°19' W 085°18'.

; draft 5.6 m.

Type: Other ship. MMSI: 366922280.

Date/timePositionNaut miles runAvg speedWind from/ knotsBaromVisibWave heightAir tempDewpointWater temp
2014-Oct-22 14:33N 45°19' W 085°18'0 0.0
2014-Oct-22 13:33N 45°19' W 085°18'0 0.0
2014-Oct-22 12:33N 45°19' W 085°18'1 0.8
2014-Oct-22 11:33N 45°20' W 085°17'9 8.9
2014-Oct-22 10:33N 45°17' W 085°29'9 9.2
2014-Oct-22 09:33N 45°12' W 085°41'9 9.4
2014-Oct-22 08:33N 45°05' W 085°50'7 0.2
2014-Oct-20 09:13N 45°00' W 085°58'14 8.6
2014-Oct-20 07:33N 45°10' W 085°43'8 8.3
2014-Oct-20 06:33N 45°15' W 085°33'9 8.9
2014-Oct-20 05:33N 45°19' W 085°22'3 3.2
2014-Oct-20 04:33N 45°19' W 085°18'0 0.0
2014-Oct-20 03:33N 45°19' W 085°18'0 0.0
2014-Oct-20 02:33N 45°19' W 085°18'0 0.0
2014-Oct-20 01:33N 45°19' W 085°18'0 0.0
2014-Oct-20 00:33N 45°19' W 085°18'0 0.0
2014-Oct-19 23:33N 45°19' W 085°18'0 0.0
2014-Oct-19 22:33N 45°19' W 085°18'1 0.9
2014-Oct-19 21:33N 45°20' W 085°18'9 9.3
2014-Oct-19 20:33N 45°16' W 085°30'10 9.8
2014-Oct-19 19:33N 45°11' W 085°42'10 9.8
2014-Oct-19 18:33N 45°04' W 085°52'  
2014-Oct-16 06:33N 45°10' W 085°43'9 9.2
2014-Oct-16 05:33N 45°16' W 085°32'9 9.5
2014-Oct-16 04:33N 45°20' W 085°20'2 2.0
2014-Oct-16 03:33N 45°19' W 085°18'0 0.0
2014-Oct-16 02:33N 45°19' W 085°18'0 0.0
2014-Oct-16 01:33N 45°19' W 085°18'0 0.0
2014-Oct-16 00:33N 45°19' W 085°18'0 0.0
2014-Oct-15 23:33N 45°19' W 085°18'0 0.0
2014-Oct-15 22:33N 45°19' W 085°18'0 0.0
2014-Oct-15 21:33N 45°19' W 085°18'4 3.9
2014-Oct-15 20:33N 45°22' W 085°15'9 9.5
2014-Oct-15 19:33N 45°24' W 085°02'4 3.6
2014-Oct-15 18:33N 45°25' W 084°57'0 0.0
2014-Oct-15 17:33N 45°25' W 084°57'0 0.0
2014-Oct-15 16:33N 45°25' W 084°57'0 0.0
2014-Oct-15 15:33N 45°25' W 084°57'0 0.0
2014-Oct-15 14:33N 45°25' W 084°57'0 0.0
2014-Oct-15 13:33N 45°25' W 084°57'0 0.0
2014-Oct-15 12:33N 45°25' W 084°57'0 0.0
2014-Oct-15 11:33N 45°25' W 084°57'0 0.0
2014-Oct-15 10:33N 45°25' W 084°57'0 0.0
2014-Oct-15 09:33N 45°25' W 084°57'0 0.0
2014-Oct-15 08:33N 45°25' W 084°57'0 0.0
2014-Oct-15 07:33N 45°25' W 084°57'0 0.0
2014-Oct-15 06:33N 45°25' W 084°57'0 0.0
2014-Oct-15 05:33N 45°25' W 084°57'0 0.0
2014-Oct-15 04:33N 45°25' W 084°57'0 0.0
2014-Oct-15 03:33N 45°25' W 084°57'0 0.0
2014-Oct-15 02:33N 45°25' W 084°57'0 0.0
2014-Oct-15 01:33N 45°25' W 084°57'0 0.0
2014-Oct-15 00:33N 45°25' W 084°56'0 0.0
2014-Oct-14 23:33N 45°25' W 084°56'0 0.0
2014-Oct-14 22:33N 45°25' W 084°56'0 0.0
2014-Oct-14 21:33N 45°25' W 084°56'0 0.0
2014-Oct-14 20:33N 45°25' W 084°56'0 0.1
2014-Oct-14 19:33N 45°25' W 084°56'0 0.1
2014-Oct-14 18:33N 45°25' W 084°56'3 3.1
2014-Oct-14 17:33N 45°24' W 085°01'9 9.3
2014-Oct-14 16:33N 45°24' W 085°14'4 3.8
2014-Oct-14 15:33N 45°22' W 085°19'2 2.5
2014-Oct-14 14:33N 45°21' W 085°22'3 2.7
2014-Oct-14 13:33N 45°19' W 085°25'3 3.4
2014-Oct-14 12:33N 45°18' W 085°29'5 4.9
2014-Oct-14 11:33N 45°15' W 085°35'1010.0
2014-Oct-14 10:33N 45°08' W 085°46'11 0.3
2014-Oct-12 22:32N 45°01' W 085°57'9 9.1
2014-Oct-12 21:32N 45°07' W 085°48'9 9.1
2014-Oct-12 20:33N 45°13' W 085°39'9 9.1
2014-Oct-12 19:33N 45°17' W 085°27'8 7.5
2014-Oct-12 18:33N 45°19' W 085°17'0 0.4
2014-Oct-12 17:33N 45°19' W 085°18'0 0.0
2014-Oct-12 16:33N 45°19' W 085°18'0 0.0
2014-Oct-12 15:33N 45°19' W 085°18'  
Track history (hours):
 
Tides and Currents Weather Stations Pressure Air Temp Water Temp Dewpoint Dewpoint Depression Visibility Wind Speed Wind Dir Waves Ship Positions

PrentiSS Brown

Owner: Port City Marine Services Inc, Muskegon, MI. More information available from US FCC via Universal Licensing System and Coast Guard Vessel Documentation Center.

Last reported at 2014-Oct-22 14:33 UTC. Time now 2014-Oct-22 15:32 UTC.
Position N 45°19' W 085°18'.

; draft 5.6 m.

Type: Other ship. MMSI: 366922280.

Date/timePositionNaut miles runAvg speedWind from/ knotsBaromVisibWave heightAir tempDewpointWater temp
2014-Oct-22 14:33N 45°19' W 085°18'0 0.0
2014-Oct-22 13:33N 45°19' W 085°18'0 0.0
2014-Oct-22 12:33N 45°19' W 085°18'1 0.8
2014-Oct-22 11:33N 45°20' W 085°17'9 8.9
2014-Oct-22 10:33N 45°17' W 085°29'9 9.2
2014-Oct-22 09:33N 45°12' W 085°41'9 9.4
2014-Oct-22 08:33N 45°05' W 085°50'7 0.2
2014-Oct-20 09:13N 45°00' W 085°58'14 8.6
2014-Oct-20 07:33N 45°10' W 085°43'8 8.3
2014-Oct-20 06:33N 45°15' W 085°33'9 8.9
2014-Oct-20 05:33N 45°19' W 085°22'3 3.2
2014-Oct-20 04:33N 45°19' W 085°18'0 0.0
2014-Oct-20 03:33N 45°19' W 085°18'0 0.0
2014-Oct-20 02:33N 45°19' W 085°18'0 0.0
2014-Oct-20 01:33N 45°19' W 085°18'0 0.0
2014-Oct-20 00:33N 45°19' W 085°18'0 0.0
2014-Oct-19 23:33N 45°19' W 085°18'0 0.0
2014-Oct-19 22:33N 45°19' W 085°18'1 0.9
2014-Oct-19 21:33N 45°20' W 085°18'9 9.3
2014-Oct-19 20:33N 45°16' W 085°30'10 9.8
2014-Oct-19 19:33N 45°11' W 085°42'10 9.8
2014-Oct-19 18:33N 45°04' W 085°52'  
2014-Oct-16 06:33N 45°10' W 085°43'9 9.2
2014-Oct-16 05:33N 45°16' W 085°32'9 9.5
2014-Oct-16 04:33N 45°20' W 085°20'2 2.0
2014-Oct-16 03:33N 45°19' W 085°18'0 0.0
2014-Oct-16 02:33N 45°19' W 085°18'0 0.0
2014-Oct-16 01:33N 45°19' W 085°18'0 0.0
2014-Oct-16 00:33N 45°19' W 085°18'0 0.0
2014-Oct-15 23:33N 45°19' W 085°18'0 0.0
2014-Oct-15 22:33N 45°19' W 085°18'0 0.0
2014-Oct-15 21:33N 45°19' W 085°18'4 3.9
2014-Oct-15 20:33N 45°22' W 085°15'9 9.5
2014-Oct-15 19:33N 45°24' W 085°02'4 3.6
2014-Oct-15 18:33N 45°25' W 084°57'0 0.0
2014-Oct-15 17:33N 45°25' W 084°57'0 0.0
2014-Oct-15 16:33N 45°25' W 084°57'0 0.0
2014-Oct-15 15:33N 45°25' W 084°57'0 0.0
2014-Oct-15 14:33N 45°25' W 084°57'0 0.0
2014-Oct-15 13:33N 45°25' W 084°57'0 0.0
2014-Oct-15 12:33N 45°25' W 084°57'0 0.0
2014-Oct-15 11:33N 45°25' W 084°57'0 0.0
2014-Oct-15 10:33N 45°25' W 084°57'0 0.0
2014-Oct-15 09:33N 45°25' W 084°57'0 0.0
2014-Oct-15 08:33N 45°25' W 084°57'0 0.0
2014-Oct-15 07:33N 45°25' W 084°57'0 0.0
2014-Oct-15 06:33N 45°25' W 084°57'0 0.0
2014-Oct-15 05:33N 45°25' W 084°57'0 0.0
2014-Oct-15 04:33N 45°25' W 084°57'0 0.0
2014-Oct-15 03:33N 45°25' W 084°57'0 0.0
2014-Oct-15 02:33N 45°25' W 084°57'0 0.0
2014-Oct-15 01:33N 45°25' W 084°57'0 0.0
2014-Oct-15 00:33N 45°25' W 084°56'0 0.0
2014-Oct-14 23:33N 45°25' W 084°56'0 0.0
2014-Oct-14 22:33N 45°25' W 084°56'0 0.0
2014-Oct-14 21:33N 45°25' W 084°56'0 0.0
2014-Oct-14 20:33N 45°25' W 084°56'0 0.1
2014-Oct-14 19:33N 45°25' W 084°56'0 0.1
2014-Oct-14 18:33N 45°25' W 084°56'3 3.1
2014-Oct-14 17:33N 45°24' W 085°01'9 9.3
2014-Oct-14 16:33N 45°24' W 085°14'4 3.8
2014-Oct-14 15:33N 45°22' W 085°19'2 2.5
2014-Oct-14 14:33N 45°21' W 085°22'3 2.7
2014-Oct-14 13:33N 45°19' W 085°25'3 3.4
2014-Oct-14 12:33N 45°18' W 085°29'5 4.9
2014-Oct-14 11:33N 45°15' W 085°35'1010.0
2014-Oct-14 10:33N 45°08' W 085°46'11 0.3
2014-Oct-12 22:32N 45°01' W 085°57'9 9.1
2014-Oct-12 21:32N 45°07' W 085°48'9 9.1
2014-Oct-12 20:33N 45°13' W 085°39'9 9.1
2014-Oct-12 19:33N 45°17' W 085°27'8 7.5
2014-Oct-12 18:33N 45°19' W 085°17'0 0.4
2014-Oct-12 17:33N 45°19' W 085°18'0 0.0
2014-Oct-12 16:33N 45°19' W 085°18'0 0.0
2014-Oct-12 15:33N 45°19' W 085°18'  

Dump ship's entire track history